createdAt,value
2018-05-12T00:00:09.840Z,20.40
2018-05-12T00:00:47.019Z,20.40
2018-05-12T00:01:24.450Z,20.50
2018-05-12T00:02:01.800Z,20.40
2018-05-12T00:02:39.280Z,20.50
2018-05-12T00:03:16.663Z,20.50
2018-05-12T00:03:54.952Z,20.50
2018-05-12T00:04:32.216Z,20.50
2018-05-12T00:05:10.382Z,20.50
2018-05-12T00:05:47.710Z,20.50
2018-05-12T00:06:25.153Z,20.50
2018-05-12T00:07:02.399Z,20.50
2018-05-12T00:07:40.747Z,20.40
2018-05-12T00:08:18.192Z,20.50
2018-05-12T00:08:55.672Z,20.50
2018-05-12T00:09:32.887Z,20.40
2018-05-12T00:10:10.063Z,20.40
2018-05-12T00:10:47.588Z,20.40
2018-05-12T00:11:24.822Z,20.40
2018-05-12T00:12:02.207Z,20.40
2018-05-12T00:12:40.211Z,20.40
2018-05-12T00:13:17.367Z,20.40
2018-05-12T00:13:54.586Z,20.40
2018-05-12T00:14:31.792Z,20.40
2018-05-12T00:15:09.162Z,20.40
2018-05-12T00:15:46.433Z,20.50
2018-05-12T00:16:23.672Z,20.50
2018-05-12T00:17:01.026Z,20.40
2018-05-12T00:17:38.402Z,20.50
2018-05-12T00:18:16.493Z,20.50
2018-05-12T00:18:53.839Z,20.50
2018-05-12T00:19:31.096Z,20.40
2018-05-12T00:20:09.388Z,20.50
2018-05-12T00:20:46.653Z,20.40
2018-05-12T00:21:23.833Z,20.50
2018-05-12T00:22:01.183Z,20.40
2018-05-12T00:22:38.610Z,20.40
2018-05-12T00:23:15.825Z,20.50
2018-05-12T00:23:53.215Z,20.40
2018-05-12T00:24:30.444Z,20.40
2018-05-12T00:25:07.863Z,20.40
2018-05-12T00:25:46.011Z,20.40
2018-05-12T00:26:23.443Z,20.40
2018-05-12T00:27:00.709Z,20.40
2018-05-12T00:27:37.978Z,20.40
2018-05-12T00:28:15.301Z,20.40
2018-05-12T00:28:53.547Z,20.40
2018-05-12T00:29:31.007Z,20.50
2018-05-12T00:30:08.406Z,20.40
2018-05-12T00:30:45.698Z,20.40
2018-05-12T00:31:23.801Z,20.40
2018-05-12T00:32:01.185Z,20.40
2018-05-12T00:32:38.595Z,20.40
2018-05-12T00:33:16.014Z,20.40
2018-05-12T00:33:53.998Z,20.50
2018-05-12T00:34:32.055Z,20.50
2018-05-12T00:35:09.315Z,20.50
2018-05-12T00:35:46.624Z,20.50
2018-05-12T00:36:24.839Z,20.50
2018-05-12T00:37:02.844Z,20.50
2018-05-12T00:37:40.249Z,20.50
2018-05-12T00:38:17.469Z,20.50
2018-05-12T00:38:54.663Z,20.50
2018-05-12T00:39:31.972Z,20.50
2018-05-12T00:40:09.225Z,20.50
2018-05-12T00:40:46.553Z,20.50
2018-05-12T00:41:24.002Z,20.40
2018-05-12T00:42:01.971Z,20.40
2018-05-12T00:42:39.210Z,20.40
2018-05-12T00:43:16.590Z,20.40
2018-05-12T00:43:54.785Z,20.40
2018-05-12T00:44:32.841Z,20.40
2018-05-12T00:45:10.099Z,20.40
2018-05-12T00:45:47.512Z,20.40
2018-05-12T00:46:25.026Z,20.40
2018-05-12T00:47:02.254Z,20.50
2018-05-12T00:47:39.713Z,20.50
2018-05-12T00:48:17.011Z,20.40
2018-05-12T00:48:54.190Z,20.50
2018-05-12T00:49:32.158Z,20.50
2018-05-12T00:50:09.607Z,20.40
2018-05-12T00:50:46.734Z,20.50
2018-05-12T00:51:24.694Z,20.50
2018-05-12T00:52:02.171Z,20.50
2018-05-12T00:52:39.452Z,20.50
2018-05-12T00:53:16.893Z,20.50
2018-05-12T00:53:54.375Z,20.50
2018-05-12T00:54:31.697Z,20.50
2018-05-12T00:55:09.777Z,20.50
2018-05-12T00:55:48.045Z,20.50
2018-05-12T00:56:25.190Z,20.50
2018-05-12T00:57:02.463Z,20.50
2018-05-12T00:57:40.654Z,20.50
2018-05-12T00:58:17.961Z,20.50
2018-05-12T00:58:56.210Z,20.50
2018-05-12T00:59:33.484Z,20.50
2018-05-12T01:00:10.677Z,20.50
2018-05-12T01:00:48.155Z,20.50
2018-05-12T01:01:26.291Z,20.50
2018-05-12T01:02:03.624Z,20.40
2018-05-12T01:02:41.801Z,20.50
2018-05-12T01:03:19.187Z,20.40
2018-05-12T01:03:56.435Z,20.40
2018-05-12T01:04:34.660Z,20.40
2018-05-12T01:05:11.886Z,20.40
2018-05-12T01:05:49.040Z,20.40
2018-05-12T01:06:26.235Z,20.40
2018-05-12T01:07:03.730Z,20.40
2018-05-12T01:07:41.898Z,20.40
2018-05-12T01:08:19.260Z,20.40
2018-05-12T01:08:57.278Z,20.40
2018-05-12T01:09:34.727Z,20.40
2018-05-12T01:10:12.099Z,20.50
2018-05-12T01:10:50.338Z,20.50
2018-05-12T01:11:28.316Z,20.40
2018-05-12T01:12:06.551Z,20.50
2018-05-12T01:12:43.857Z,20.50
2018-05-12T01:13:21.044Z,20.50
2018-05-12T01:13:58.457Z,20.50
2018-05-12T01:14:36.654Z,20.40
2018-05-12T01:15:14.850Z,20.50
2018-05-12T01:15:52.256Z,20.40
2018-05-12T01:16:29.515Z,20.40
2018-05-12T01:17:07.590Z,20.40
2018-05-12T01:17:45.019Z,20.40
2018-05-12T01:18:22.427Z,20.40
2018-05-12T01:18:59.869Z,20.40
2018-05-12T01:19:37.884Z,20.40
2018-05-12T01:20:15.911Z,20.40
2018-05-12T01:20:53.942Z,20.40
2018-05-12T01:21:31.879Z,20.40
2018-05-12T01:22:09.286Z,20.40
2018-05-12T01:22:47.314Z,20.40
2018-05-12T01:23:24.790Z,20.40
2018-05-12T01:24:01.971Z,20.40
2018-05-12T01:24:39.386Z,20.30
2018-05-12T01:25:16.660Z,20.40
2018-05-12T01:25:54.820Z,20.40
2018-05-12T01:26:32.839Z,20.40
2018-05-12T01:27:10.910Z,20.40
2018-05-12T01:27:48.320Z,20.40
2018-05-12T01:28:26.274Z,20.40
2018-05-12T01:29:03.635Z,20.40
2018-05-12T01:29:41.100Z,20.40
2018-05-12T01:30:19.229Z,20.40
2018-05-12T01:30:56.682Z,20.40
2018-05-12T01:31:33.953Z,20.40
2018-05-12T01:32:11.155Z,20.40
2018-05-12T01:32:48.554Z,20.50
2018-05-12T01:33:25.723Z,20.50
2018-05-12T01:34:03.889Z,20.50
2018-05-12T01:34:41.175Z,20.40
2018-05-12T01:35:19.254Z,20.40
2018-05-12T01:35:56.612Z,20.40
2018-05-12T01:36:34.836Z,20.40
2018-05-12T01:37:13.046Z,20.40
2018-05-12T01:37:50.265Z,20.40
2018-05-12T01:38:27.683Z,20.40
2018-05-12T01:39:05.889Z,20.40
2018-05-12T01:39:43.230Z,20.40
2018-05-12T01:40:20.455Z,20.40
2018-05-12T01:40:58.621Z,20.40
2018-05-12T01:41:36.819Z,20.40
2018-05-12T01:42:14.125Z,20.40
2018-05-12T01:42:51.476Z,20.40
2018-05-12T01:43:28.691Z,20.40
2018-05-12T01:44:06.843Z,20.40
2018-05-12T01:44:44.199Z,20.40
2018-05-12T01:45:21.378Z,20.40
2018-05-12T01:45:59.519Z,20.40
2018-05-12T01:46:36.822Z,20.40
2018-05-12T01:47:15.069Z,20.40
2018-05-12T01:47:52.315Z,20.40
2018-05-12T01:48:29.546Z,20.40
2018-05-12T01:49:06.950Z,20.40
2018-05-12T01:49:45.108Z,20.40
2018-05-12T01:50:22.443Z,20.40
2018-05-12T01:50:59.843Z,20.40
2018-05-12T01:51:37.034Z,20.40
2018-05-12T01:52:14.292Z,20.40
2018-05-12T01:52:52.533Z,20.40
2018-05-12T01:53:29.861Z,20.40
2018-05-12T01:54:08.125Z,20.40
2018-05-12T01:54:46.300Z,20.40
2018-05-12T01:55:23.634Z,20.40
2018-05-12T01:56:01.918Z,20.40
2018-05-12T01:56:39.280Z,20.30
2018-05-12T01:57:16.452Z,20.30
2018-05-12T01:57:53.867Z,20.40
2018-05-12T01:58:31.297Z,20.30
2018-05-12T01:59:09.465Z,20.40
2018-05-12T01:59:47.547Z,20.30
2018-05-12T02:00:24.993Z,20.40
2018-05-12T02:01:02.210Z,20.30
2018-05-12T02:01:40.393Z,20.40
2018-05-12T02:02:17.776Z,20.30
2018-05-12T02:02:55.136Z,20.40
2018-05-12T02:03:32.575Z,20.40
2018-05-12T02:04:09.788Z,20.40
2018-05-12T02:04:48.000Z,20.40
2018-05-12T02:05:25.142Z,20.40
2018-05-12T02:06:02.518Z,20.40
2018-05-12T02:06:39.689Z,20.40
2018-05-12T02:07:17.885Z,20.40
2018-05-12T02:07:55.182Z,20.40
2018-05-12T02:08:32.536Z,20.40
2018-05-12T02:09:09.989Z,20.40
2018-05-12T02:09:47.275Z,20.40
2018-05-12T02:10:24.535Z,20.40
2018-05-12T02:11:02.787Z,20.40
2018-05-12T02:11:40.081Z,20.40
2018-05-12T02:12:18.258Z,20.40
2018-05-12T02:12:55.601Z,20.40
2018-05-12T02:13:32.983Z,20.40
2018-05-12T02:14:11.167Z,20.40
2018-05-12T02:14:49.270Z,20.40
2018-05-12T02:15:27.491Z,20.40
2018-05-12T02:16:04.659Z,20.40
2018-05-12T02:16:41.865Z,20.40
2018-05-12T02:17:19.152Z,20.40
2018-05-12T02:17:56.585Z,20.40
2018-05-12T02:18:34.806Z,20.40
2018-05-12T02:19:12.028Z,20.40
2018-05-12T02:19:50.237Z,20.40
2018-05-12T02:20:27.732Z,20.40
2018-05-12T02:21:05.687Z,20.40
2018-05-12T02:21:43.016Z,20.40
2018-05-12T02:22:21.161Z,20.40
2018-05-12T02:22:59.351Z,20.40
2018-05-12T02:23:36.757Z,20.40
2018-05-12T02:24:14.198Z,20.40
2018-05-12T02:24:52.166Z,20.40
2018-05-12T02:25:29.468Z,20.40
2018-05-12T02:26:06.733Z,20.40
2018-05-12T02:26:44.118Z,20.40
2018-05-12T02:27:22.115Z,20.50
2018-05-12T02:27:59.359Z,20.40
2018-05-12T02:28:36.829Z,20.40
2018-05-12T02:29:14.352Z,20.40
2018-05-12T02:29:52.349Z,20.40
2018-05-12T02:30:29.963Z,20.40
2018-05-12T02:31:07.201Z,20.40
2018-05-12T02:31:44.572Z,20.40
2018-05-12T02:32:21.958Z,20.50
2018-05-12T02:32:59.419Z,20.50
2018-05-12T02:33:37.647Z,20.50
2018-05-12T02:34:14.977Z,20.50
2018-05-12T02:34:53.093Z,20.50
2018-05-12T02:35:30.539Z,20.50
2018-05-12T02:36:08.774Z,20.50
2018-05-12T02:36:46.153Z,20.50
2018-05-12T02:37:24.167Z,20.50
2018-05-12T02:38:02.129Z,20.50
2018-05-12T02:38:39.389Z,20.50
2018-05-12T02:39:16.634Z,20.50
2018-05-12T02:39:54.843Z,20.50
2018-05-12T02:40:32.249Z,20.50
2018-05-12T02:41:09.694Z,20.50
2018-05-12T02:41:47.079Z,20.50
2018-05-12T02:42:24.510Z,20.40
2018-05-12T02:43:01.931Z,20.40
2018-05-12T02:43:39.479Z,20.40
2018-05-12T02:44:17.531Z,20.40
2018-05-12T02:44:54.929Z,20.40
2018-05-12T02:45:32.191Z,20.40
2018-05-12T02:46:10.264Z,20.30
2018-05-12T02:46:47.535Z,20.30
2018-05-12T02:47:24.749Z,20.30
2018-05-12T02:48:02.082Z,20.30
2018-05-12T02:48:39.270Z,20.30
2018-05-12T02:49:17.349Z,20.30
2018-05-12T02:49:54.738Z,20.30
2018-05-12T02:50:32.099Z,20.30
2018-05-12T02:51:09.982Z,20.40
2018-05-12T02:51:47.452Z,20.40
2018-05-12T02:52:24.909Z,20.40
2018-05-12T02:53:02.308Z,20.40
2018-05-12T02:53:40.523Z,20.40
2018-05-12T02:54:17.984Z,20.40
2018-05-12T02:54:55.389Z,20.40
2018-05-12T02:55:33.397Z,20.40
2018-05-12T02:56:10.731Z,20.40
2018-05-12T02:56:48.009Z,20.40
2018-05-12T02:57:26.290Z,20.40
2018-05-12T02:58:03.610Z,20.40
2018-05-12T02:58:41.734Z,20.40
2018-05-12T02:59:19.939Z,20.40
2018-05-12T02:59:57.392Z,20.40
2018-05-12T03:00:35.519Z,20.40
2018-05-12T03:01:12.889Z,20.40
2018-05-12T03:01:51.086Z,20.40
2018-05-12T03:02:29.384Z,20.30
2018-05-12T03:03:06.727Z,20.30
2018-05-12T03:03:43.999Z,20.30
2018-05-12T03:04:21.424Z,20.30
2018-05-12T03:04:58.808Z,20.30
2018-05-12T03:05:36.154Z,20.30
2018-05-12T03:06:13.569Z,20.30
2018-05-12T03:06:51.621Z,20.30
2018-05-12T03:07:29.071Z,20.30
2018-05-12T03:08:06.573Z,20.30
2018-05-12T03:08:44.078Z,20.30
2018-05-12T03:09:22.162Z,20.30
2018-05-12T03:09:59.449Z,20.30
2018-05-12T03:10:37.665Z,20.30
2018-05-12T03:11:14.857Z,20.30
2018-05-12T03:11:52.016Z,20.30
2018-05-12T03:12:29.234Z,20.30
2018-05-12T03:13:06.552Z,20.30
2018-05-12T03:13:44.726Z,20.30
2018-05-12T03:14:22.187Z,20.30
2018-05-12T03:15:00.451Z,20.30
2018-05-12T03:15:37.618Z,20.30
2018-05-12T03:16:14.907Z,20.30
2018-05-12T03:16:52.934Z,20.30
2018-05-12T03:17:30.210Z,20.20
2018-05-12T03:18:07.393Z,20.20
2018-05-12T03:18:44.809Z,20.20
2018-05-12T03:19:23.128Z,20.20
2018-05-12T03:20:00.311Z,20.20
2018-05-12T03:20:37.784Z,20.20
2018-05-12T03:21:15.907Z,20.20
2018-05-12T03:21:54.114Z,20.20
2018-05-12T03:22:32.291Z,20.20
2018-05-12T03:23:10.491Z,20.30
2018-05-12T03:23:47.946Z,20.30
2018-05-12T03:24:26.078Z,20.30
2018-05-12T03:25:03.414Z,20.30
2018-05-12T03:25:40.877Z,20.30
2018-05-12T03:26:18.111Z,20.30
2018-05-12T03:26:56.275Z,20.30
2018-05-12T03:27:33.495Z,20.30
2018-05-12T03:28:11.658Z,20.30
2018-05-12T03:28:49.846Z,20.30
2018-05-12T03:29:27.258Z,20.30
2018-05-12T03:30:04.481Z,20.30
2018-05-12T03:30:41.904Z,20.40
2018-05-12T03:31:19.107Z,20.30
2018-05-12T03:31:57.318Z,20.30
2018-05-12T03:32:35.352Z,20.40
2018-05-12T03:33:12.785Z,20.30
2018-05-12T03:33:50.204Z,20.40
2018-05-12T03:34:27.589Z,20.40
2018-05-12T03:35:05.078Z,20.40
2018-05-12T03:35:42.481Z,20.40
2018-05-12T03:36:19.771Z,20.40
2018-05-12T03:36:57.955Z,20.40
2018-05-12T03:37:36.194Z,20.40
2018-05-12T03:38:13.388Z,20.30
2018-05-12T03:38:50.654Z,20.40
2018-05-12T03:39:28.041Z,20.30
2018-05-12T03:40:05.278Z,20.40
2018-05-12T03:40:43.431Z,20.30
2018-05-12T03:41:21.646Z,20.30
2018-05-12T03:41:59.049Z,20.30
2018-05-12T03:42:36.316Z,20.30
2018-05-12T03:43:13.722Z,20.30
2018-05-12T03:43:50.904Z,20.30
2018-05-12T03:44:28.304Z,20.30
2018-05-12T03:45:05.478Z,20.30
2018-05-12T03:45:42.853Z,20.30
2018-05-12T03:46:20.233Z,20.30
2018-05-12T03:46:57.613Z,20.40
2018-05-12T03:47:35.041Z,20.40
2018-05-12T03:48:13.206Z,20.40
2018-05-12T03:48:51.254Z,20.40
2018-05-12T03:49:28.627Z,20.40
2018-05-12T03:50:06.087Z,20.40
2018-05-12T03:50:43.258Z,20.30
2018-05-12T03:51:20.757Z,20.40
2018-05-12T03:51:58.091Z,20.30
2018-05-12T03:52:36.351Z,20.30
2018-05-12T03:53:13.665Z,20.40
2018-05-12T03:53:51.078Z,20.40
2018-05-12T03:54:29.288Z,20.40
2018-05-12T03:55:07.278Z,20.30
2018-05-12T03:55:45.531Z,20.30
2018-05-12T03:56:22.732Z,20.30
2018-05-12T03:56:59.902Z,20.40
2018-05-12T03:57:37.310Z,20.40
2018-05-12T03:58:15.520Z,20.40
2018-05-12T03:58:52.936Z,20.40
2018-05-12T03:59:30.117Z,20.40
2018-05-12T04:00:08.247Z,20.40
2018-05-12T04:00:45.658Z,20.40
2018-05-12T04:01:22.936Z,20.40
2018-05-12T04:02:00.976Z,20.40
2018-05-12T04:02:38.242Z,20.40
2018-05-12T04:03:15.442Z,20.40
2018-05-12T04:03:53.632Z,20.40
2018-05-12T04:04:31.825Z,20.40
2018-05-12T04:05:09.076Z,20.40
2018-05-12T04:05:46.565Z,20.40
2018-05-12T04:06:24.678Z,20.40
2018-05-12T04:07:02.107Z,20.40
2018-05-12T04:07:40.292Z,20.40
2018-05-12T04:08:18.483Z,20.40
2018-05-12T04:08:55.943Z,20.40
2018-05-12T04:09:33.368Z,20.40
2018-05-12T04:10:11.548Z,20.40
2018-05-12T04:10:49.754Z,20.40
2018-05-12T04:11:26.919Z,20.40
2018-05-12T04:12:04.283Z,20.40
2018-05-12T04:12:42.473Z,20.30
2018-05-12T04:13:19.763Z,20.30
2018-05-12T04:13:57.942Z,20.40
2018-05-12T04:14:35.314Z,20.30
2018-05-12T04:15:12.570Z,20.40
2018-05-12T04:15:50.793Z,20.40
2018-05-12T04:16:28.880Z,20.40
2018-05-12T04:17:06.325Z,20.30
2018-05-12T04:17:43.717Z,20.40
2018-05-12T04:18:21.194Z,20.40
2018-05-12T04:18:58.599Z,20.40
2018-05-12T04:19:35.886Z,20.40
2018-05-12T04:20:13.317Z,20.40
2018-05-12T04:20:50.670Z,20.40
2018-05-12T04:21:28.051Z,20.40
2018-05-12T04:22:05.267Z,20.40
2018-05-12T04:22:42.625Z,20.40
2018-05-12T04:23:20.044Z,20.40
2018-05-12T04:23:58.012Z,20.40
2018-05-12T04:24:36.193Z,20.40
2018-05-12T04:25:13.560Z,20.40
2018-05-12T04:25:50.782Z,20.30
2018-05-12T04:26:28.859Z,20.30
2018-05-12T04:27:06.119Z,20.30
2018-05-12T04:27:43.449Z,20.40
2018-05-12T04:28:21.590Z,20.30
2018-05-12T04:28:59.031Z,20.40
2018-05-12T04:29:37.153Z,20.40
2018-05-12T04:30:15.370Z,20.40
2018-05-12T04:30:52.735Z,20.40
2018-05-12T04:31:29.999Z,20.40
2018-05-12T04:32:07.253Z,20.40
2018-05-12T04:32:44.407Z,20.40
2018-05-12T04:33:21.775Z,20.40
2018-05-12T04:33:59.938Z,20.40
2018-05-12T04:34:37.261Z,20.40
2018-05-12T04:35:15.430Z,20.40
2018-05-12T04:35:53.674Z,20.40
2018-05-12T04:36:30.955Z,20.40
2018-05-12T04:37:09.181Z,20.40
2018-05-12T04:37:46.534Z,20.40
2018-05-12T04:38:23.956Z,20.50
2018-05-12T04:39:02.123Z,20.40
2018-05-12T04:39:40.324Z,20.50
2018-05-12T04:40:17.546Z,20.40
2018-05-12T04:40:54.738Z,20.40
2018-05-12T04:41:31.946Z,20.40
2018-05-12T04:42:09.133Z,20.40
2018-05-12T04:42:46.321Z,20.40
2018-05-12T04:43:23.813Z,20.40
2018-05-12T04:44:01.951Z,20.40
2018-05-12T04:44:40.145Z,20.40
2018-05-12T04:45:18.147Z,20.40
2018-05-12T04:45:56.111Z,20.40
2018-05-12T04:46:33.434Z,20.40
2018-05-12T04:47:11.499Z,20.40
2018-05-12T04:47:48.884Z,20.40
2018-05-12T04:48:26.312Z,20.40
2018-05-12T04:49:04.425Z,20.40
2018-05-12T04:49:41.827Z,20.40
2018-05-12T04:50:19.199Z,20.40
2018-05-12T04:50:56.346Z,20.40
2018-05-12T04:51:33.665Z,20.40
2018-05-12T04:52:11.617Z,20.50
2018-05-12T04:52:48.995Z,20.40
2018-05-12T04:53:26.248Z,20.40
2018-05-12T04:54:03.661Z,20.50
2018-05-12T04:54:40.814Z,20.50
2018-05-12T04:55:18.825Z,20.40
2018-05-12T04:55:56.889Z,20.40
2018-05-12T04:56:34.197Z,20.40
2018-05-12T04:57:12.210Z,20.50
2018-05-12T04:57:49.554Z,20.40
2018-05-12T04:58:26.929Z,20.40
2018-05-12T04:59:04.337Z,20.40
2018-05-12T04:59:42.450Z,20.50
2018-05-12T05:00:20.392Z,20.50
2018-05-12T05:00:57.858Z,20.20
2018-05-12T05:01:35.095Z,20.50
2018-05-12T05:02:12.512Z,20.50
2018-05-12T05:02:50.644Z,20.50
2018-05-12T05:03:28.708Z,20.50
2018-05-12T05:04:06.122Z,20.50
2018-05-12T05:04:43.386Z,20.50
2018-05-12T05:05:21.482Z,20.50
2018-05-12T05:05:58.833Z,20.50
2018-05-12T05:06:37.021Z,20.50
2018-05-12T05:07:14.282Z,20.50
2018-05-12T05:07:51.554Z,20.50
2018-05-12T05:08:28.769Z,20.50
2018-05-12T05:09:06.113Z,20.50
2018-05-12T05:09:43.573Z,20.50
2018-05-12T05:10:21.589Z,20.50
2018-05-12T05:10:59.014Z,20.50
2018-05-12T05:11:36.238Z,20.50
2018-05-12T05:12:14.322Z,20.50
2018-05-12T05:12:51.713Z,20.50
2018-05-12T05:13:29.866Z,20.50
2018-05-12T05:14:07.150Z,20.50
2018-05-12T05:14:45.398Z,20.50
2018-05-12T05:15:22.766Z,20.50
2018-05-12T05:16:00.743Z,20.50
2018-05-12T05:16:38.995Z,20.50
2018-05-12T05:17:16.286Z,20.50
2018-05-12T05:17:53.766Z,20.50
2018-05-12T05:18:31.808Z,20.50
2018-05-12T05:19:09.175Z,20.50
2018-05-12T05:19:46.517Z,20.50
2018-05-12T05:20:23.907Z,20.50
2018-05-12T05:21:01.904Z,20.60
2018-05-12T05:21:39.313Z,20.50
2018-05-12T05:22:16.513Z,20.60
2018-05-12T05:22:53.841Z,20.70
2018-05-12T05:23:31.143Z,20.60
2018-05-12T05:24:09.302Z,20.60
2018-05-12T05:24:46.716Z,20.60
2018-05-12T05:25:23.899Z,20.60
2018-05-12T05:26:01.336Z,20.50
2018-05-12T05:26:38.485Z,20.50
2018-05-12T05:27:15.846Z,20.50
2018-05-12T05:27:53.276Z,20.40
2018-05-12T05:28:30.431Z,20.40
2018-05-12T05:29:08.598Z,20.40
2018-05-12T05:29:45.999Z,20.40
2018-05-12T05:30:23.230Z,20.40
2018-05-12T05:31:01.352Z,20.40
2018-05-12T05:31:38.728Z,20.40
2018-05-12T05:32:16.211Z,20.40
2018-05-12T05:32:53.675Z,20.50
2018-05-12T05:33:31.051Z,20.50
2018-05-12T05:34:08.529Z,20.50
2018-05-12T05:34:45.950Z,20.50
2018-05-12T05:35:23.385Z,20.50
2018-05-12T05:36:00.644Z,20.50
2018-05-12T05:36:37.910Z,20.50
2018-05-12T05:37:15.239Z,20.50
2018-05-12T05:37:53.422Z,20.50
2018-05-12T05:38:31.651Z,20.60
2018-05-12T05:39:08.978Z,20.50
2018-05-12T05:39:46.377Z,20.60
2018-05-12T05:40:24.570Z,20.60
2018-05-12T05:41:02.657Z,20.60
2018-05-12T05:41:39.965Z,20.50
2018-05-12T05:42:17.375Z,20.50
2018-05-12T05:42:54.779Z,20.50
2018-05-12T05:43:32.980Z,20.50
2018-05-12T05:44:10.375Z,20.50
2018-05-12T05:44:47.717Z,20.50
2018-05-12T05:45:25.617Z,20.40
2018-05-12T05:46:03.827Z,20.40
2018-05-12T05:46:41.023Z,20.40
2018-05-12T05:47:18.372Z,20.40
2018-05-12T05:47:55.598Z,20.40
2018-05-12T05:48:32.798Z,20.40
2018-05-12T05:49:10.170Z,20.40
2018-05-12T05:49:47.446Z,20.40
2018-05-12T05:50:24.739Z,20.40
2018-05-12T05:51:02.823Z,20.40
2018-05-12T05:51:41.033Z,20.40
2018-05-12T05:52:19.215Z,20.40
2018-05-12T05:52:56.708Z,20.40
2018-05-12T05:53:33.882Z,20.40
2018-05-12T05:54:11.894Z,20.40
2018-05-12T05:54:49.219Z,20.40
2018-05-12T05:55:26.503Z,20.40
2018-05-12T05:56:04.719Z,20.40
2018-05-12T05:56:42.037Z,20.40
2018-05-12T05:57:19.368Z,20.40
2018-05-12T05:57:56.541Z,20.40
2018-05-12T05:58:34.709Z,20.40
2018-05-12T05:59:11.862Z,20.30
2018-05-12T05:59:49.356Z,20.30
2018-05-12T06:00:27.479Z,20.40
2018-05-12T06:01:04.844Z,20.40
2018-05-12T06:01:43.155Z,20.50
2018-05-12T06:02:20.541Z,20.40
2018-05-12T06:02:57.722Z,20.50
2018-05-12T06:03:35.926Z,20.60
2018-05-12T06:04:13.092Z,20.60
2018-05-12T06:04:50.391Z,20.60
2018-05-12T06:05:28.461Z,20.60
2018-05-12T06:06:05.874Z,20.60
2018-05-12T06:06:43.368Z,20.60
2018-05-12T06:07:20.649Z,20.60
2018-05-12T06:07:58.029Z,20.60
2018-05-12T06:08:35.427Z,20.60
2018-05-12T06:09:13.599Z,20.60
2018-05-12T06:09:51.619Z,20.50
2018-05-12T06:10:29.581Z,20.50
2018-05-12T06:11:07.014Z,20.50
2018-05-12T06:11:45.085Z,20.50
2018-05-12T06:12:23.256Z,20.50
2018-05-12T06:13:00.700Z,20.50
2018-05-12T06:13:38.922Z,20.50
2018-05-12T06:14:16.342Z,20.40
2018-05-12T06:14:53.673Z,20.40
2018-05-12T06:15:31.677Z,20.50
2018-05-12T06:16:09.066Z,20.50
2018-05-12T06:16:47.076Z,20.60
2018-05-12T06:17:24.429Z,20.60
2018-05-12T06:18:01.625Z,20.60
2018-05-12T06:18:38.941Z,20.60
2018-05-12T06:19:16.143Z,20.60
2018-05-12T06:19:53.420Z,20.60
2018-05-12T06:20:30.600Z,20.60
2018-05-12T06:21:07.960Z,20.60
2018-05-12T06:21:45.363Z,20.50
2018-05-12T06:22:22.648Z,20.50
2018-05-12T06:23:00.185Z,20.50
2018-05-12T06:23:38.394Z,20.50
2018-05-12T06:24:15.791Z,20.50
2018-05-12T06:24:53.055Z,20.40
2018-05-12T06:25:30.491Z,20.50
2018-05-12T06:26:07.902Z,20.50
2018-05-12T06:26:46.080Z,20.50
2018-05-12T06:27:23.294Z,20.50
2018-05-12T06:28:00.553Z,20.50
2018-05-12T06:28:37.928Z,20.50
2018-05-12T06:29:15.102Z,20.50
2018-05-12T06:29:53.081Z,20.60
2018-05-12T06:30:30.512Z,20.60
2018-05-12T06:31:07.913Z,20.60
2018-05-12T06:31:45.391Z,20.60
2018-05-12T06:32:22.774Z,20.60
2018-05-12T06:33:00.159Z,20.60
2018-05-12T06:33:37.450Z,20.60
2018-05-12T06:34:14.487Z,20.60
2018-05-12T06:34:51.663Z,20.70
2018-05-12T06:35:28.973Z,20.60
2018-05-12T06:36:06.192Z,20.70
2018-05-12T06:36:43.321Z,20.70
2018-05-12T06:37:20.739Z,20.70
2018-05-12T06:37:58.314Z,20.70
2018-05-12T06:38:35.510Z,20.70
2018-05-12T06:39:13.726Z,20.70
2018-05-12T06:39:51.085Z,20.70
2018-05-12T06:40:28.499Z,20.70
2018-05-12T06:41:06.659Z,20.60
2018-05-12T06:41:44.798Z,20.60
2018-05-12T06:42:22.004Z,20.60
2018-05-12T06:42:59.335Z,20.60
2018-05-12T06:43:36.581Z,20.60
2018-05-12T06:44:14.787Z,20.60
2018-05-12T06:44:52.045Z,20.60
2018-05-12T06:45:29.986Z,20.70
2018-05-12T06:46:08.158Z,20.70
2018-05-12T06:46:45.492Z,20.70
2018-05-12T06:47:23.703Z,20.70
2018-05-12T06:48:01.736Z,20.70
2018-05-12T06:48:39.712Z,20.70
2018-05-12T06:49:16.817Z,20.70
2018-05-12T06:49:54.245Z,20.70
2018-05-12T06:50:32.425Z,20.60
2018-05-12T06:51:10.537Z,20.60
2018-05-12T06:51:47.876Z,20.60
2018-05-12T06:52:25.041Z,20.50
2018-05-12T06:53:02.551Z,20.60
2018-05-12T06:53:40.681Z,20.50
2018-05-12T06:54:17.907Z,20.50
2018-05-12T06:54:56.123Z,20.50
2018-05-12T06:55:33.352Z,20.50
2018-05-12T06:56:10.752Z,20.50
2018-05-12T06:56:48.000Z,20.60
2018-05-12T06:57:25.254Z,20.60
2018-05-12T06:58:03.448Z,20.50
2018-05-12T06:58:41.609Z,20.60
2018-05-12T06:59:18.843Z,20.60
2018-05-12T06:59:56.345Z,20.60
2018-05-12T07:00:33.736Z,20.60
2018-05-12T07:01:11.927Z,20.60
2018-05-12T07:01:50.037Z,20.60
2018-05-12T07:02:27.338Z,20.60
2018-05-12T07:03:04.582Z,20.60
2018-05-12T07:03:42.759Z,20.60
2018-05-12T07:04:20.967Z,20.60
2018-05-12T07:04:58.259Z,20.60
2018-05-12T07:05:36.444Z,20.60
2018-05-12T07:06:13.686Z,20.60
2018-05-12T07:06:51.143Z,20.70
2018-05-12T07:07:28.342Z,20.70
2018-05-12T07:08:05.602Z,20.70
2018-05-12T07:08:43.878Z,20.60
2018-05-12T07:09:21.111Z,20.60
2018-05-12T07:09:58.537Z,20.60
2018-05-12T07:10:36.687Z,20.70
2018-05-12T07:11:14.104Z,20.70
2018-05-12T07:11:52.154Z,20.70
2018-05-12T07:12:29.557Z,20.70
2018-05-12T07:13:07.551Z,20.70
2018-05-12T07:13:44.855Z,20.70
2018-05-12T07:14:22.290Z,20.80
2018-05-12T07:15:00.546Z,20.80
2018-05-12T07:15:38.564Z,20.80
2018-05-12T07:16:15.997Z,20.80
2018-05-12T07:16:54.139Z,20.90
2018-05-12T07:17:31.589Z,20.80
2018-05-12T07:18:08.967Z,20.80
2018-05-12T07:18:46.424Z,20.90
2018-05-12T07:19:23.930Z,20.90
2018-05-12T07:20:01.166Z,20.90
2018-05-12T07:20:38.549Z,20.80
2018-05-12T07:21:15.951Z,20.90
2018-05-12T07:21:53.172Z,20.90
2018-05-12T07:22:31.134Z,20.90
2018-05-12T07:23:08.502Z,20.90
2018-05-12T07:23:46.703Z,20.90
2018-05-12T07:24:24.131Z,20.90
2018-05-12T07:25:01.550Z,20.90
2018-05-12T07:25:39.680Z,20.90
2018-05-12T07:26:16.861Z,20.90
2018-05-12T07:26:54.075Z,20.90
2018-05-12T07:27:32.186Z,21.00
2018-05-12T07:28:09.414Z,20.90
2018-05-12T07:28:46.926Z,21.00
2018-05-12T07:29:24.085Z,21.00
2018-05-12T07:30:01.275Z,21.00
2018-05-12T07:30:38.595Z,21.00
2018-05-12T07:31:15.794Z,21.00
2018-05-12T07:31:52.992Z,21.10
2018-05-12T07:32:31.207Z,21.10
2018-05-12T07:33:08.535Z,21.10
2018-05-12T07:33:45.925Z,21.10
2018-05-12T07:34:23.157Z,21.10
2018-05-12T07:35:00.398Z,21.10
2018-05-12T07:35:37.793Z,21.10
2018-05-12T07:36:15.003Z,21.10
2018-05-12T07:36:53.287Z,21.10
2018-05-12T07:37:30.610Z,21.10
2018-05-12T07:38:08.004Z,21.10
2018-05-12T07:38:45.385Z,21.10
2018-05-12T07:39:22.821Z,21.10
2018-05-12T07:40:00.282Z,21.20
2018-05-12T07:40:37.470Z,21.10
2018-05-12T07:41:15.622Z,21.20
2018-05-12T07:41:52.864Z,21.20
2018-05-12T07:42:31.069Z,21.20
2018-05-12T07:43:08.459Z,21.20
2018-05-12T07:43:46.649Z,21.10
2018-05-12T07:44:23.841Z,21.10
2018-05-12T07:45:01.054Z,21.10
2018-05-12T07:45:38.555Z,21.10
2018-05-12T07:46:16.662Z,21.10
2018-05-12T07:46:54.862Z,21.20
2018-05-12T07:47:32.086Z,21.20
2018-05-12T07:48:09.527Z,21.20
2018-05-12T07:48:46.885Z,21.20
2018-05-12T07:49:24.345Z,21.20
2018-05-12T07:50:02.370Z,21.20
2018-05-12T07:50:39.702Z,21.20
2018-05-12T07:51:16.933Z,21.20
2018-05-12T07:51:55.026Z,21.10
2018-05-12T07:52:32.223Z,21.10
2018-05-12T07:53:09.429Z,21.10
2018-05-12T07:53:47.536Z,21.10
2018-05-12T07:54:25.024Z,21.10
2018-05-12T07:55:02.208Z,21.20
2018-05-12T07:55:40.401Z,21.20
2018-05-12T07:56:17.733Z,21.20
2018-05-12T07:56:55.200Z,21.20
2018-05-12T07:57:33.142Z,21.20
2018-05-12T07:58:10.346Z,21.20
2018-05-12T07:58:47.528Z,21.20
2018-05-12T07:59:24.915Z,21.10
2018-05-12T08:00:02.090Z,21.10
2018-05-12T08:00:39.523Z,21.10
2018-05-12T08:01:17.687Z,21.10
2018-05-12T08:01:55.094Z,21.10
2018-05-12T08:02:33.355Z,21.10
2018-05-12T08:03:11.583Z,21.10
2018-05-12T08:03:49.684Z,21.10